sensor_id;sensor_type;location;lat;lon;timestamp;pressure;altitude;pressure_sealevel;temperature;humidity
51359;BME280;37448;51.588;7.248;2024-02-16T00:00:04;100430.91;;;11.57;100.00
51359;BME280;37448;51.588;7.248;2024-02-16T00:02:11;100415.06;;;11.63;100.00
51359;BME280;37448;51.588;7.248;2024-02-16T00:04:12;100434.25;;;11.62;100.00
51359;BME280;37448;51.588;7.248;2024-02-16T00:06:12;100418.66;;;11.59;100.00
51359;BME280;37448;51.588;7.248;2024-02-16T00:08:13;100414.25;;;11.61;100.00
51359;BME280;37448;51.588;7.248;2024-02-16T00:10:13;100429.34;;;11.50;100.00
51359;BME280;37448;51.588;7.248;2024-02-16T00:12:14;100424.06;;;11.53;100.00
51359;BME280;37448;51.588;7.248;2024-02-16T00:14:15;100423.97;;;11.56;100.00
51359;BME280;37448;51.588;7.248;2024-02-16T00:16:15;100420.63;;;11.51;100.00
51359;BME280;37448;51.588;7.248;2024-02-16T00:18:15;100416.13;;;11.56;100.00
51359;BME280;37448;51.588;7.248;2024-02-16T00:20:16;100419.81;;;11.49;100.00
51359;BME280;37448;51.588;7.248;2024-02-16T00:22:16;100410.09;;;11.54;100.00
51359;BME280;37448;51.588;7.248;2024-02-16T00:24:17;100408.31;;;11.55;100.00
51359;BME280;37448;51.588;7.248;2024-02-16T00:26:17;100413.03;;;11.39;100.00
51359;BME280;37448;51.588;7.248;2024-02-16T00:28:18;100418.91;;;11.50;100.00
51359;BME280;37448;51.588;7.248;2024-02-16T00:30:19;100415.44;;;11.48;100.00
51359;BME280;37448;51.588;7.248;2024-02-16T00:32:20;100417.19;;;11.49;100.00
51359;BME280;37448;51.588;7.248;2024-02-16T00:34:20;100419.84;;;11.46;100.00
51359;BME280;37448;51.588;7.248;2024-02-16T00:36:21;100425.16;;;11.43;100.00
51359;BME280;37448;51.588;7.248;2024-02-16T00:38:21;100423.44;;;11.42;100.00
51359;BME280;37448;51.588;7.248;2024-02-16T00:40:23;100422.59;;;11.40;100.00
51359;BME280;37448;51.588;7.248;2024-02-16T00:42:24;100426.97;;;11.39;100.00
51359;BME280;37448;51.588;7.248;2024-02-16T00:44:26;100419.19;;;11.36;100.00
51359;BME280;37448;51.588;7.248;2024-02-16T00:46:27;100420.06;;;11.37;100.00
51359;BME280;37448;51.588;7.248;2024-02-16T00:48:27;100419.31;;;11.31;100.00
51359;BME280;37448;51.588;7.248;2024-02-16T00:50:28;100423.63;;;11.32;100.00
51359;BME280;37448;51.588;7.248;2024-02-16T00:52:28;100412.47;;;11.27;100.00
51359;BME280;37448;51.588;7.248;2024-02-16T00:54:28;100420.22;;;11.30;100.00
51359;BME280;37448;51.588;7.248;2024-02-16T00:56:30;100421.09;;;11.29;100.00
51359;BME280;37448;51.588;7.248;2024-02-16T00:58:30;100408.94;;;11.28;100.00
51359;BME280;37448;51.588;7.248;2024-02-16T01:00:30;100412.47;;;11.27;100.00
51359;BME280;37448;51.588;7.248;2024-02-16T01:02:31;100419.41;;;11.28;100.00
51359;BME280;37448;51.588;7.248;2024-02-16T01:04:32;100418.59;;;11.25;100.00
51359;BME280;37448;51.588;7.248;2024-02-16T01:06:33;100424.63;;;11.27;100.00
51359;BME280;37448;51.588;7.248;2024-02-16T01:08:33;100423.78;;;11.26;100.00
51359;BME280;37448;51.588;7.248;2024-02-16T01:10:34;100418.56;;;11.26;100.00
51359;BME280;37448;51.588;7.248;2024-02-16T01:12:34;100418.66;;;11.22;100.00
51359;BME280;37448;51.588;7.248;2024-02-16T01:14:35;100414.38;;;11.19;100.00
51359;BME280;37448;51.588;7.248;2024-02-16T01:16:35;100416.09;;;11.20;100.00
51359;BME280;37448;51.588;7.248;2024-02-16T01:18:36;100412.81;;;11.10;100.00
51359;BME280;37448;51.588;7.248;2024-02-16T01:20:37;100412.72;;;11.15;100.00
51359;BME280;37448;51.588;7.248;2024-02-16T01:22:39;100416.31;;;11.11;100.00
51359;BME280;37448;51.588;7.248;2024-02-16T01:24:39;100413.72;;;11.09;100.00
51359;BME280;37448;51.588;7.248;2024-02-16T01:26:40;100411.25;;;11.04;100.00
51359;BME280;37448;51.588;7.248;2024-02-16T01:28:40;100410.50;;;10.98;100.00
51359;BME280;37448;51.588;7.248;2024-02-16T01:30:41;100402.78;;;10.93;100.00
51359;BME280;37448;51.588;7.248;2024-02-16T01:32:41;100402.78;;;10.93;100.00
51359;BME280;37448;51.588;7.248;2024-02-16T01:34:42;100402.94;;;10.87;100.00
51359;BME280;37448;51.588;7.248;2024-02-16T01:36:44;100395.03;;;10.90;100.00
51359;BME280;37448;51.588;7.248;2024-02-16T01:38:44;100396.91;;;10.85;100.00
51359;BME280;37448;51.588;7.248;2024-02-16T01:40:45;100402.09;;;10.85;100.00
51359;BME280;37448;51.588;7.248;2024-02-16T01:42:47;100402.94;;;10.87;100.00
51359;BME280;37448;51.588;7.248;2024-02-16T01:44:47;100394.22;;;10.86;100.00
51359;BME280;37448;51.588;7.248;2024-02-16T01:46:48;100390.72;;;10.89;100.00
51359;BME280;37448;51.588;7.248;2024-02-16T01:48:48;100397.78;;;10.84;100.00
51359;BME280;37448;51.588;7.248;2024-02-16T01:50:50;100400.25;;;10.90;100.00
51359;BME280;37448;51.588;7.248;2024-02-16T01:52:52;100390.78;;;10.86;100.00
51359;BME280;37448;51.588;7.248;2024-02-16T01:54:52;100395.94;;;10.89;100.00
51359;BME280;37448;51.588;7.248;2024-02-16T01:56:53;100394.06;;;10.94;100.00
51359;BME280;37448;51.588;7.248;2024-02-16T01:58:54;100387.00;;;10.99;100.00
51359;BME280;37448;51.588;7.248;2024-02-16T02:00:56;100388.69;;;11.00;100.00
51359;BME280;37448;51.588;7.248;2024-02-16T02:02:56;100384.22;;;11.07;100.00
51359;BME280;37448;51.588;7.248;2024-02-16T02:04:57;100379.03;;;11.05;100.00
51359;BME280;37448;51.588;7.248;2024-02-16T02:06:58;100380.88;;;11.00;100.00
51359;BME280;37448;51.588;7.248;2024-02-16T02:08:58;100372.69;;;11.16;100.00
51359;BME280;37448;51.588;7.248;2024-02-16T02:10:59;100370.00;;;11.19;100.00
51359;BME280;37448;51.588;7.248;2024-02-16T02:12:59;100369.28;;;11.14;100.00
51359;BME280;37448;51.588;7.248;2024-02-16T02:14:59;100366.56;;;11.18;100.00
51359;BME280;37448;51.588;7.248;2024-02-16T02:17:00;100370.00;;;11.19;100.00
51359;BME280;37448;51.588;7.248;2024-02-16T02:19:00;100363.91;;;11.20;100.00
51359;BME280;37448;51.588;7.248;2024-02-16T02:21:01;100376.94;;;11.20;100.00
51359;BME280;37448;51.588;7.248;2024-02-16T02:23:01;100367.63;;;11.10;100.00
51359;BME280;37448;51.588;7.248;2024-02-16T02:25:02;100376.03;;;11.21;100.00
51359;BME280;37448;51.588;7.248;2024-02-16T02:27:02;100363.91;;;11.20;100.00
51359;BME280;37448;51.588;7.248;2024-02-16T02:29:03;100367.38;;;11.20;100.00
51359;BME280;37448;51.588;7.248;2024-02-16T02:31:03;100365.75;;;11.16;100.00
51359;BME280;37448;51.588;7.248;2024-02-16T02:33:04;100365.75;;;11.15;100.00
51359;BME280;37448;51.588;7.248;2024-02-16T02:35:05;100363.94;;;11.18;100.00
51359;BME280;37448;51.588;7.248;2024-02-16T02:37:06;100366.59;;;11.17;100.00
51359;BME280;37448;51.588;7.248;2024-02-16T02:39:07;100359.72;;;11.14;100.00
51359;BME280;37448;51.588;7.248;2024-02-16T02:41:07;100357.41;;;11.00;100.00
51359;BME280;37448;51.588;7.248;2024-02-16T02:43:07;100351.97;;;11.10;100.00
51359;BME280;37448;51.588;7.248;2024-02-16T02:45:09;100339.75;;;11.12;100.00
51359;BME280;37448;51.588;7.248;2024-02-16T02:47:09;100345.88;;;11.11;100.00
51359;BME280;37448;51.588;7.248;2024-02-16T02:49:09;100348.56;;;11.08;100.00
51359;BME280;37448;51.588;7.248;2024-02-16T02:51:10;100354.69;;;11.05;100.00
51359;BME280;37448;51.588;7.248;2024-02-16T02:53:10;100345.25;;;10.99;100.00
51359;BME280;37448;51.588;7.248;2024-02-16T02:55:11;100353.06;;;10.99;100.00
51359;BME280;37448;51.588;7.248;2024-02-16T02:57:11;100359.19;;;10.98;100.00
51359;BME280;37448;51.588;7.248;2024-02-16T02:59:12;100350.53;;;10.96;100.00
51359;BME280;37448;51.588;7.248;2024-02-16T03:01:13;100355.88;;;10.91;100.00
51359;BME280;37448;51.588;7.248;2024-02-16T03:03:14;100352.19;;;11.00;100.00
51359;BME280;37448;51.588;7.248;2024-02-16T03:05:14;100354.91;;;10.96;100.00
51359;BME280;37448;51.588;7.248;2024-02-16T03:07:15;100350.47;;;10.99;100.00
51359;BME280;37448;51.588;7.248;2024-02-16T03:09:15;100346.97;;;11.00;100.00
51359;BME280;37448;51.588;7.248;2024-02-16T03:11:17;100344.25;;;11.05;100.00
51359;BME280;37448;51.588;7.248;2024-02-16T03:13:17;100348.56;;;11.06;100.00
51359;BME280;37448;51.588;7.248;2024-02-16T03:15:18;100331.03;;;11.13;100.00
51359;BME280;37448;51.588;7.248;2024-02-16T03:17:19;100335.59;;;11.04;100.00
51359;BME280;37448;51.588;7.248;2024-02-16T03:19:19;100333.63;;;11.13;100.00
51359;BME280;37448;51.588;7.248;2024-02-16T03:21:20;100329.22;;;11.15;100.00
51359;BME280;37448;51.588;7.248;2024-02-16T03:23:21;100326.72;;;11.10;100.00
51359;BME280;37448;51.588;7.248;2024-02-16T03:25:21;100332.75;;;11.12;100.00
51359;BME280;37448;51.588;7.248;2024-02-16T03:27:23;100329.31;;;11.12;100.00
51359;BME280;37448;51.588;7.248;2024-02-16T03:29:23;100328.41;;;11.13;100.00
51359;BME280;37448;51.588;7.248;2024-02-16T03:31:24;100324.00;;;11.15;100.00
51359;BME280;37448;51.588;7.248;2024-02-16T03:33:25;100326.81;;;11.07;100.00
51359;BME280;37448;51.588;7.248;2024-02-16T03:35:25;100329.22;;;11.15;100.00
51359;BME280;37448;51.588;7.248;2024-02-16T03:37:27;100318.78;;;11.15;100.00
51359;BME280;37448;51.588;7.248;2024-02-16T03:39:28;100321.50;;;11.12;100.00
51359;BME280;37448;51.588;7.248;2024-02-16T03:41:28;100319.66;;;11.15;100.00
51359;BME280;37448;51.588;7.248;2024-02-16T03:43:29;100323.44;;;11.03;100.00
51359;BME280;37448;51.588;7.248;2024-02-16T03:45:29;100321.56;;;11.09;100.00
51359;BME280;37448;51.588;7.248;2024-02-16T03:47:29;100329.47;;;11.05;100.00
51359;BME280;37448;51.588;7.248;2024-02-16T03:49:30;100319.84;;;11.08;100.00
51359;BME280;37448;51.588;7.248;2024-02-16T03:51:30;100329.47;;;11.05;100.00
51359;BME280;37448;51.588;7.248;2024-02-16T03:53:31;100317.41;;;11.01;100.00
51359;BME280;37448;51.588;7.248;2024-02-16T03:55:31;100325.34;;;10.95;100.00
51359;BME280;37448;51.588;7.248;2024-02-16T03:57:37;100325.25;;;11.00;100.00
51359;BME280;37448;51.588;7.248;2024-02-16T03:59:38;100323.53;;;10.99;100.00
51359;BME280;37448;51.588;7.248;2024-02-16T04:01:38;100321.81;;;10.98;100.00
51359;BME280;37448;51.588;7.248;2024-02-16T04:03:38;100324.44;;;10.96;100.00
51359;BME280;37448;51.588;7.248;2024-02-16T04:05:39;100327.06;;;10.96;100.00
51359;BME280;37448;51.588;7.248;2024-02-16T04:07:39;100331.53;;;10.91;100.00
51359;BME280;37448;51.588;7.248;2024-02-16T04:09:40;100331.38;;;10.97;100.00
51359;BME280;37448;51.588;7.248;2024-02-16T04:11:41;100327.97;;;10.95;100.00
51359;BME280;37448;51.588;7.248;2024-02-16T04:13:41;100333.19;;;10.95;100.00
51359;BME280;37448;51.588;7.248;2024-02-16T04:15:43;100333.34;;;10.89;100.00
51359;BME280;37448;51.588;7.248;2024-02-16T04:17:45;100327.22;;;10.90;100.00
51359;BME280;37448;51.588;7.248;2024-02-16T04:19:46;100327.13;;;10.95;100.00
51359;BME280;37448;51.588;7.248;2024-02-16T04:21:47;100315.97;;;10.88;100.00
51359;BME280;37448;51.588;7.248;2024-02-16T04:23:48;100321.94;;;10.93;100.00
51359;BME280;37448;51.588;7.248;2024-02-16T04:25:50;100313.19;;;10.96;100.00
51359;BME280;37448;51.588;7.248;2024-02-16T04:27:53;100313.84;;;11.04;100.00
51359;BME280;37448;51.588;7.248;2024-02-16T04:29:55;100315.59;;;11.03;100.00
51359;BME280;37448;51.588;7.248;2024-02-16T04:31:55;100319.16;;;10.99;100.00
51359;BME280;37448;51.588;7.248;2024-02-16T04:33:56;100311.34;;;10.99;100.00
51359;BME280;37448;51.588;7.248;2024-02-16T04:35:56;100320.81;;;11.03;100.00
51359;BME280;37448;51.588;7.248;2024-02-16T04:37:57;100329.47;;;11.05;100.00
51359;BME280;37448;51.588;7.248;2024-02-16T04:39:58;100331.19;;;11.07;100.00
51359;BME280;37448;51.588;7.248;2024-02-16T04:41:59;100327.75;;;11.04;100.00
51359;BME280;37448;51.588;7.248;2024-02-16T04:43:59;100321.59;;;11.07;100.00
51359;BME280;37448;51.588;7.248;2024-02-16T04:46:00;100323.31;;;11.08;100.00
51359;BME280;37448;51.588;7.248;2024-02-16T04:48:04;100324.25;;;11.05;100.00
51359;BME280;37448;51.588;7.248;2024-02-16T04:50:08;100319.88;;;11.06;100.00
51359;BME280;37448;51.588;7.248;2024-02-16T04:52:11;100325.16;;;11.03;100.00
51359;BME280;37448;51.588;7.248;2024-02-16T04:54:11;100333.91;;;11.00;100.00
51359;BME280;37448;51.588;7.248;2024-02-16T04:56:12;100333.78;;;11.07;100.00
51359;BME280;37448;51.588;7.248;2024-02-16T04:58:12;100338.13;;;11.08;100.00
51359;BME280;37448;51.588;7.248;2024-02-16T05:00:13;100339.81;;;11.09;100.00
51359;BME280;37448;51.588;7.248;2024-02-16T05:02:14;100337.31;;;11.04;100.00
51359;BME280;37448;51.588;7.248;2024-02-16T05:04:14;100331.19;;;11.07;100.00
51359;BME280;37448;51.588;7.248;2024-02-16T05:06:17;100336.47;;;11.03;100.00
51359;BME280;37448;51.588;7.248;2024-02-16T05:08:17;100329.50;;;11.04;100.00
51359;BME280;37448;51.588;7.248;2024-02-16T05:10:18;100337.31;;;11.04;100.00
51359;BME280;37448;51.588;7.248;2024-02-16T05:12:20;100331.47;;;10.94;100.00
51359;BME280;37448;51.588;7.248;2024-02-16T05:14:21;100330.44;;;11.01;100.00
51359;BME280;37448;51.588;7.248;2024-02-16T05:16:21;100322.63;;;11.01;100.00
51359;BME280;37448;51.588;7.248;2024-02-16T05:18:22;100321.84;;;10.96;100.00
51359;BME280;37448;51.588;7.248;2024-02-16T05:20:23;100321.84;;;10.96;100.00
51359;BME280;37448;51.588;7.248;2024-02-16T05:22:23;100326.22;;;10.96;100.00
51359;BME280;37448;51.588;7.248;2024-02-16T05:24:24;100325.41;;;10.94;100.00
51359;BME280;37448;51.588;7.248;2024-02-16T05:26:24;100325.34;;;10.95;100.00
51359;BME280;37448;51.588;7.248;2024-02-16T05:28:24;100323.63;;;10.94;100.00
51359;BME280;37448;51.588;7.248;2024-02-16T05:30:25;100329.75;;;10.93;100.00
51359;BME280;37448;51.588;7.248;2024-02-16T05:32:25;100327.38;;;10.84;100.00
51359;BME280;37448;51.588;7.248;2024-02-16T05:34:26;100328.19;;;10.86;100.00
51359;BME280;37448;51.588;7.248;2024-02-16T05:36:27;100331.78;;;10.82;100.00
51359;BME280;37448;51.588;7.248;2024-02-16T05:38:30;100323.88;;;10.83;100.00
51359;BME280;37448;51.588;7.248;2024-02-16T05:40:40;100326.47;;;10.85;100.00
51359;BME280;37448;51.588;7.248;2024-02-16T05:42:53;100333.34;;;10.89;100.00
51359;BME280;37448;51.588;7.248;2024-02-16T05:44:54;100330.78;;;10.86;100.00
51359;BME280;37448;51.588;7.248;2024-02-16T05:46:55;100333.31;;;10.90;100.00
51359;BME280;37448;51.588;7.248;2024-02-16T05:48:55;100333.41;;;10.86;100.00
51359;BME280;37448;51.588;7.248;2024-02-16T05:51:00;100334.22;;;10.88;100.00
51359;BME280;37448;51.588;7.248;2024-02-16T05:53:01;100337.69;;;10.88;100.00
51359;BME280;37448;51.588;7.248;2024-02-16T05:55:01;100327.44;;;10.81;100.00
51359;BME280;37448;51.588;7.248;2024-02-16T05:57:02;100335.13;;;10.87;100.00
51359;BME280;37448;51.588;7.248;2024-02-16T05:59:04;100336.03;;;10.84;100.00
51359;BME280;37448;51.588;7.248;2024-02-16T06:01:05;100340.34;;;10.85;100.00
51359;BME280;37448;51.588;7.248;2024-02-16T06:03:06;100337.06;;;10.79;100.00
51359;BME280;37448;51.588;7.248;2024-02-16T06:05:07;100334.44;;;10.79;100.00
51359;BME280;37448;51.588;7.248;2024-02-16T06:07:07;100339.50;;;10.85;100.00
51359;BME280;37448;51.588;7.248;2024-02-16T06:09:08;100330.06;;;10.79;100.00
51359;BME280;37448;51.588;7.248;2024-02-16T06:11:09;100335.28;;;10.81;100.00
51359;BME280;37448;51.588;7.248;2024-02-16T06:13:09;100336.09;;;10.83;100.00
51359;BME280;37448;51.588;7.248;2024-02-16T06:15:10;100335.28;;;10.81;100.00
51359;BME280;37448;51.588;7.248;2024-02-16T06:17:10;100338.78;;;10.80;100.00
51359;BME280;37448;51.588;7.248;2024-02-16T06:19:11;100337.09;;;10.75;100.00
51359;BME280;37448;51.588;7.248;2024-02-16T06:21:11;100337.91;;;10.79;100.00
51359;BME280;37448;51.588;7.248;2024-02-16T06:23:13;100331.06;;;10.73;100.00
51359;BME280;37448;51.588;7.248;2024-02-16T06:25:14;100345.00;;;10.72;100.00
51359;BME280;37448;51.588;7.248;2024-02-16T06:27:15;100338.81;;;10.76;100.00
51359;BME280;37448;51.588;7.248;2024-02-16T06:29:16;100337.91;;;10.79;100.00
51359;BME280;37448;51.588;7.248;2024-02-16T06:31:16;100335.34;;;10.77;100.00
51359;BME280;37448;51.588;7.248;2024-02-16T06:33:16;100346.69;;;10.75;100.00
51359;BME280;37448;51.588;7.248;2024-02-16T06:35:17;100351.91;;;10.75;100.00
51359;BME280;37448;51.588;7.248;2024-02-16T06:37:18;100352.13;;;10.66;100.00
51359;BME280;37448;51.588;7.248;2024-02-16T06:39:18;100359.81;;;10.70;100.00
51359;BME280;37448;51.588;7.248;2024-02-16T06:41:20;100358.09;;;10.69;100.00
51359;BME280;37448;51.588;7.248;2024-02-16T06:43:20;100357.34;;;10.66;100.00
51359;BME280;37448;51.588;7.248;2024-02-16T06:45:20;100351.19;;;10.68;100.00
51359;BME280;37448;51.588;7.248;2024-02-16T06:47:21;100352.97;;;10.66;100.00
51359;BME280;37448;51.588;7.248;2024-02-16T06:49:23;100352.91;;;10.69;100.00
51359;BME280;37448;51.588;7.248;2024-02-16T06:51:24;100349.41;;;10.70;100.00
51359;BME280;37448;51.588;7.248;2024-02-16T06:53:25;100345.00;;;10.72;100.00
51359;BME280;37448;51.588;7.248;2024-02-16T06:55:25;100349.22;;;10.78;100.00
51359;BME280;37448;51.588;7.248;2024-02-16T06:57:25;100346.63;;;10.78;100.00
51359;BME280;37448;51.588;7.248;2024-02-16T06:59:26;100350.84;;;10.84;100.00
51359;BME280;37448;51.588;7.248;2024-02-16T07:01:26;100344.81;;;10.82;100.00
51359;BME280;37448;51.588;7.248;2024-02-16T07:03:29;100357.84;;;10.82;100.00
51359;BME280;37448;51.588;7.248;2024-02-16T07:05:30;100349.91;;;10.86;100.00
51359;BME280;37448;51.588;7.248;2024-02-16T07:07:31;100354.28;;;10.84;100.00
51359;BME280;37448;51.588;7.248;2024-02-16T07:09:36;100350.84;;;10.84;100.00
51359;BME280;37448;51.588;7.248;2024-02-16T07:11:36;100366.41;;;10.87;100.00
51359;BME280;37448;51.588;7.248;2024-02-16T07:13:38;100366.41;;;10.87;100.00
51359;BME280;37448;51.588;7.248;2024-02-16T07:15:38;100374.16;;;10.90;100.00
51359;BME280;37448;51.588;7.248;2024-02-16T07:17:40;100388.09;;;10.90;100.00
51359;BME280;37448;51.588;7.248;2024-02-16T07:19:41;100385.56;;;10.86;100.00
51359;BME280;37448;51.588;7.248;2024-02-16T07:21:41;100388.84;;;10.94;100.00
51359;BME280;37448;51.588;7.248;2024-02-16T07:23:41;100392.25;;;10.98;100.00
51359;BME280;37448;51.588;7.248;2024-02-16T07:25:42;100390.44;;;11.01;100.00
51359;BME280;37448;51.588;7.248;2024-02-16T07:27:42;100396.50;;;11.02;100.00
51359;BME280;37448;51.588;7.248;2024-02-16T07:29:42;100399.03;;;11.07;100.00
51359;BME280;37448;51.588;7.248;2024-02-16T07:31:43;100404.16;;;11.10;100.00
51359;BME280;37448;51.588;7.248;2024-02-16T07:33:43;100411.03;;;11.14;100.00
51359;BME280;37448;51.588;7.248;2024-02-16T07:35:44;100409.31;;;11.13;100.00
51359;BME280;37448;51.588;7.248;2024-02-16T07:37:44;100416.09;;;11.20;100.00
51359;BME280;37448;51.588;7.248;2024-02-16T07:39:45;100418.69;;;11.20;100.00
51359;BME280;37448;51.588;7.248;2024-02-16T07:41:45;100428.16;;;11.24;100.00
51359;BME280;37448;51.588;7.248;2024-02-16T07:43:46;100422.91;;;11.27;100.00
51359;BME280;37448;51.588;7.248;2024-02-16T07:45:46;100424.47;;;11.34;100.00
51359;BME280;37448;51.588;7.248;2024-02-16T07:47:46;100434.78;;;11.41;100.00
51359;BME280;37448;51.588;7.248;2024-02-16T07:49:47;100432.97;;;11.43;100.00
51359;BME280;37448;51.588;7.248;2024-02-16T07:51:47;100429.47;;;11.44;100.00
51359;BME280;37448;51.588;7.248;2024-02-16T07:53:47;100430.25;;;11.49;100.00
51359;BME280;37448;51.588;7.248;2024-02-16T07:55:48;100440.41;;;11.60;100.00
51359;BME280;37448;51.588;7.248;2024-02-16T07:57:48;100440.34;;;11.63;100.00
51359;BME280;37448;51.588;7.248;2024-02-16T07:59:48;100436.88;;;11.62;99.24
51359;BME280;37448;51.588;7.248;2024-02-16T08:01:49;100431.53;;;11.67;98.24
51359;BME280;37448;51.588;7.248;2024-02-16T08:03:49;100439.19;;;11.75;100.00
51359;BME280;37448;51.588;7.248;2024-02-16T08:05:50;100442.69;;;11.74;98.41
51359;BME280;37448;51.588;7.248;2024-02-16T08:07:50;100441.63;;;11.81;98.80
51359;BME280;37448;51.588;7.248;2024-02-16T08:09:51;100451.19;;;11.82;97.60
51359;BME280;37448;51.588;7.248;2024-02-16T08:11:51;100453.63;;;11.88;100.00
51359;BME280;37448;51.588;7.248;2024-02-16T08:13:52;100456.06;;;11.95;97.00
51359;BME280;37448;51.588;7.248;2024-02-16T08:15:52;100448.03;;;12.02;96.68
51359;BME280;37448;51.588;7.248;2024-02-16T08:17:53;100455.84;;;12.04;98.08
51359;BME280;37448;51.588;7.248;2024-02-16T08:19:54;100461.06;;;12.04;100.00
51359;BME280;37448;51.588;7.248;2024-02-16T08:21:54;100467.00;;;12.11;100.00
51359;BME280;37448;51.588;7.248;2024-02-16T08:23:55;100462.59;;;12.13;99.85
51359;BME280;37448;51.588;7.248;2024-02-16T08:25:55;100457.41;;;12.11;97.28
51359;BME280;37448;51.588;7.248;2024-02-16T08:27:56;100467.84;;;12.11;97.67
51359;BME280;37448;51.588;7.248;2024-02-16T08:29:56;100465.97;;;12.16;100.00
51359;BME280;37448;51.588;7.248;2024-02-16T08:31:57;100478.03;;;12.20;97.93
51359;BME280;37448;51.588;7.248;2024-02-16T08:33:57;100475.59;;;12.14;100.00
51359;BME280;37448;51.588;7.248;2024-02-16T08:35:57;100479.78;;;12.22;100.00
51359;BME280;37448;51.588;7.248;2024-02-16T08:37:58;100473.72;;;12.19;99.50
51359;BME280;37448;51.588;7.248;2024-02-16T08:39:59;100474.69;;;12.17;98.11
51359;BME280;37448;51.588;7.248;2024-02-16T08:41:59;100478.03;;;12.20;100.00
51359;BME280;37448;51.588;7.248;2024-02-16T08:44:00;100488.44;;;12.24;100.00
51359;BME280;37448;51.588;7.248;2024-02-16T08:46:00;100487.56;;;12.25;97.28
51359;BME280;37448;51.588;7.248;2024-02-16T08:48:00;100485.78;;;12.25;97.36
51359;BME280;37448;51.588;7.248;2024-02-16T08:50:04;100493.69;;;12.24;97.54
51359;BME280;37448;51.588;7.248;2024-02-16T08:52:06;100493.69;;;12.24;99.14
51359;BME280;37448;51.588;7.248;2024-02-16T08:54:06;100499.81;;;12.23;97.59
51359;BME280;37448;51.588;7.248;2024-02-16T08:56:10;100493.69;;;12.22;94.90
51359;BME280;37448;51.588;7.248;2024-02-16T08:58:13;100495.34;;;12.26;95.91
51359;BME280;37448;51.588;7.248;2024-02-16T09:00:14;100498.97;;;12.20;99.35
51359;BME280;37448;51.588;7.248;2024-02-16T09:02:16;100503.22;;;12.25;98.12
51359;BME280;37448;51.588;7.248;2024-02-16T09:04:16;100498.91;;;12.24;96.89
51359;BME280;37448;51.588;7.248;2024-02-16T09:06:17;100508.31;;;12.29;100.00
51359;BME280;37448;51.588;7.248;2024-02-16T09:08:17;100502.25;;;12.29;100.00
51359;BME280;37448;51.588;7.248;2024-02-16T09:10:18;100516.13;;;12.31;99.56
51359;BME280;37448;51.588;7.248;2024-02-16T09:12:18;100513.47;;;12.32;100.00
51359;BME280;37448;51.588;7.248;2024-02-16T09:14:19;100515.13;;;12.37;100.00
51359;BME280;37448;51.588;7.248;2024-02-16T09:16:19;100511.53;;;12.39;95.23
51359;BME280;37448;51.588;7.248;2024-02-16T09:18:20;100511.53;;;12.39;96.52
51359;BME280;37448;51.588;7.248;2024-02-16T09:20:20;100509.66;;;12.44;96.78
51359;BME280;37448;51.588;7.248;2024-02-16T09:22:22;100512.28;;;12.44;98.94
51359;BME280;37448;51.588;7.248;2024-02-16T09:24:23;100519.25;;;12.45;99.99
51359;BME280;37448;51.588;7.248;2024-02-16T09:26:25;100523.50;;;12.49;96.92
51359;BME280;37448;51.588;7.248;2024-02-16T09:28:30;100515.72;;;12.46;95.91
51359;BME280;37448;51.588;7.248;2024-02-16T09:30:30;100519.88;;;12.54;94.60
51359;BME280;37448;51.588;7.248;2024-02-16T09:32:32;100523.34;;;12.54;92.40
51359;BME280;37448;51.588;7.248;2024-02-16T09:34:32;100518.13;;;12.54;96.93
51359;BME280;37448;51.588;7.248;2024-02-16T09:36:33;100518.00;;;12.59;95.91
51359;BME280;37448;51.588;7.248;2024-02-16T09:38:35;100522.41;;;12.57;99.04
51359;BME280;37448;51.588;7.248;2024-02-16T09:40:36;100526.75;;;12.58;98.05
51359;BME280;37448;51.588;7.248;2024-02-16T09:42:38;100530.09;;;12.63;100.00
51359;BME280;37448;51.588;7.248;2024-02-16T09:44:39;100543.03;;;12.68;97.83
51359;BME280;37448;51.588;7.248;2024-02-16T09:46:40;100541.13;;;12.74;95.96
51359;BME280;37448;51.588;7.248;2024-02-16T09:48:40;100545.56;;;12.71;98.79
51359;BME280;37448;51.588;7.248;2024-02-16T09:50:41;100548.91;;;12.76;98.84
51359;BME280;37448;51.588;7.248;2024-02-16T09:52:49;100555.00;;;12.76;95.85
51359;BME280;37448;51.588;7.248;2024-02-16T09:54:50;100554.94;;;12.78;95.74
51359;BME280;37448;51.588;7.248;2024-02-16T09:56:50;100561.69;;;12.87;95.58
51359;BME280;37448;51.588;7.248;2024-02-16T09:58:51;100565.22;;;12.86;92.01
51359;BME280;37448;51.588;7.248;2024-02-16T10:00:53;100564.88;;;12.98;91.58
51359;BME280;37448;51.588;7.248;2024-02-16T10:02:57;100577.16;;;12.96;93.23
51359;BME280;37448;51.588;7.248;2024-02-16T10:04:57;100565.91;;;12.92;97.22
51359;BME280;37448;51.588;7.248;2024-02-16T10:06:58;100572.66;;;13.00;94.04
51359;BME280;37448;51.588;7.248;2024-02-16T10:08:58;100576.91;;;13.05;95.64
51359;BME280;37448;51.588;7.248;2024-02-16T10:11:03;100573.47;;;13.03;96.46
51359;BME280;37448;51.588;7.248;2024-02-16T10:13:05;100580.34;;;13.08;97.10
51359;BME280;37448;51.588;7.248;2024-02-16T10:15:06;100575.91;;;13.10;94.38
51359;BME280;37448;51.588;7.248;2024-02-16T10:17:06;100581.88;;;13.15;93.53
51359;BME280;37448;51.588;7.248;2024-02-16T10:19:09;100578.28;;;13.19;92.27
51359;BME280;37448;51.588;7.248;2024-02-16T10:21:12;100582.53;;;13.23;93.09
51359;BME280;37448;51.588;7.248;2024-02-16T10:23:13;100591.06;;;13.30;92.50
51359;BME280;37448;51.588;7.248;2024-02-16T10:25:13;100590.19;;;13.29;97.21